Circle Line Xii — WM8392 — position and weather

sailwx.info

Track history (hours):
 
Tides and Currents Weather Stations Pressure Air Temp Water Temp Dewpoint Dewpoint Depression Visibility Wind Speed Wind Dir Waves Ship Positions

Circle Line Xii

Owner: CIRCLE LINE SIGHTSEEING YACHTS, NEW YORK, NY. More information available from US FCC via Universal Licensing System and Coast Guard Vessel Documentation Center.

Last reported at 2015-Aug-29 22:05 UTC. Time now 2015-Aug-31 19:52 UTC.
Position N 40°46' W 074°00'.

MMSI: 367032250.

Date/timePositionNaut miles runAvg speedWind from/ knotsBaromVisibWave heightAir tempDewpointWater temp
2015-Aug-29 22:05N 40°46' W 074°00'2 3.5
2015-Aug-29 21:33N 40°44' W 074°01'2 1.9
2015-Aug-29 20:33N 40°46' W 074°00'0 0.0
2015-Aug-29 19:33N 40°46' W 074°00'0 0.0
2015-Aug-29 18:33N 40°46' W 074°00'0 0.0
2015-Aug-29 17:33N 40°46' W 074°00'0 0.0
2015-Aug-29 16:33N 40°46' W 074°00'0 0.0
2015-Aug-29 15:33N 40°46' W 074°00'0 0.0
2015-Aug-29 14:33N 40°46' W 074°00'0 0.0
2015-Aug-27 21:28N 40°46' W 074°00'2 2.5
2015-Aug-27 20:34N 40°44' W 073°58'2 2.3
2015-Aug-27 19:33N 40°46' W 074°00'0 0.0
2015-Aug-27 18:33N 40°46' W 074°00'0 0.0
2015-Aug-27 17:33N 40°46' W 074°00'2 1.0
2015-Aug-27 15:34N 40°45' W 073°58'2 2.2
2015-Aug-27 14:33N 40°45' W 074°01'1 0.9
2015-Aug-27 13:34N 40°46' W 074°00'  
2015-Aug-23 22:17N 40°46' W 074°00'1 2.0
2015-Aug-23 21:33N 40°44' W 074°01'1 1.5
2015-Aug-23 20:33N 40°46' W 074°00'0 0.0
2015-Aug-23 19:33N 40°46' W 074°00'3 2.8
2015-Aug-23 18:34N 40°48' W 073°59'2 2.0
2015-Aug-23 17:21N 40°48' W 073°56'810.1
2015-Aug-23 16:33N 40°41' W 074°02'5 4.8
2015-Aug-23 15:33N 40°46' W 074°00'5 5.1
2015-Aug-23 14:33N 40°41' W 074°03'5 5.1
2015-Aug-23 13:33N 40°46' W 074°00'0 0.0
2015-Aug-23 00:33N 40°46' W 074°00'3 3.0
2015-Aug-22 23:33N 40°43' W 073°58'3 3.0
2015-Aug-22 22:33N 40°46' W 074°00'0 0.0
2015-Aug-22 21:33N 40°46' W 074°00'3 3.4
2015-Aug-22 20:33N 40°43' W 073°58'3 3.4
2015-Aug-22 19:33N 40°46' W 074°00'2 2.5
2015-Aug-22 18:33N 40°43' W 074°01'2 1.9
2015-Aug-22 17:33N 40°42' W 074°02'4 4.4
2015-Aug-22 16:33N 40°46' W 074°00'0 0.0
2015-Aug-22 15:33N 40°46' W 074°00'0 0.0
2015-Aug-22 14:33N 40°46' W 074°00'0 0.0
2015-Aug-22 13:33N 40°46' W 074°00'0 0.0
2015-Aug-22 12:33N 40°46' W 074°00'3 0.1
2015-Aug-21 00:33N 40°43' W 074°01'2 2.1
2015-Aug-20 23:33N 40°41' W 074°02'5 4.6
2015-Aug-20 22:33N 40°46' W 074°00'0 0.0
2015-Aug-20 21:33N 40°46' W 074°00'0 0.0
2015-Aug-20 20:33N 40°46' W 074°00'0 0.0
2015-Aug-20 19:33N 40°46' W 074°00'0 0.0
2015-Aug-20 18:33N 40°46' W 074°00'3 2.6
2015-Aug-20 17:33N 40°48' W 073°59'3 1.9
2015-Aug-20 16:07N 40°46' W 073°57'610.6
2015-Aug-20 15:33N 40°41' W 074°02'5 4.6
2015-Aug-20 14:33N 40°46' W 074°00'0 0.0
2015-Aug-20 01:34N 40°46' W 074°00'3 2.8
2015-Aug-20 00:34N 40°43' W 074°01'2 2.0
2015-Aug-19 23:34N 40°41' W 074°02'5 4.7
2015-Aug-19 22:34N 40°46' W 074°00'  
Track history (hours):
 
Tides and Currents Weather Stations Pressure Air Temp Water Temp Dewpoint Dewpoint Depression Visibility Wind Speed Wind Dir Waves Ship Positions

Circle Line Xii

Owner: CIRCLE LINE SIGHTSEEING YACHTS, NEW YORK, NY. More information available from US FCC via Universal Licensing System and Coast Guard Vessel Documentation Center.

Last reported at 2015-Aug-29 22:05 UTC. Time now 2015-Aug-31 19:52 UTC.
Position N 40°46' W 074°00'.

MMSI: 367032250.

Date/timePositionNaut miles runAvg speedWind from/ knotsBaromVisibWave heightAir tempDewpointWater temp
2015-Aug-29 22:05N 40°46' W 074°00'2 3.5
2015-Aug-29 21:33N 40°44' W 074°01'2 1.9
2015-Aug-29 20:33N 40°46' W 074°00'0 0.0
2015-Aug-29 19:33N 40°46' W 074°00'0 0.0
2015-Aug-29 18:33N 40°46' W 074°00'0 0.0
2015-Aug-29 17:33N 40°46' W 074°00'0 0.0
2015-Aug-29 16:33N 40°46' W 074°00'0 0.0
2015-Aug-29 15:33N 40°46' W 074°00'0 0.0
2015-Aug-29 14:33N 40°46' W 074°00'0 0.0
2015-Aug-27 21:28N 40°46' W 074°00'2 2.5
2015-Aug-27 20:34N 40°44' W 073°58'2 2.3
2015-Aug-27 19:33N 40°46' W 074°00'0 0.0
2015-Aug-27 18:33N 40°46' W 074°00'0 0.0
2015-Aug-27 17:33N 40°46' W 074°00'2 1.0
2015-Aug-27 15:34N 40°45' W 073°58'2 2.2
2015-Aug-27 14:33N 40°45' W 074°01'1 0.9
2015-Aug-27 13:34N 40°46' W 074°00'  
2015-Aug-23 22:17N 40°46' W 074°00'1 2.0
2015-Aug-23 21:33N 40°44' W 074°01'1 1.5
2015-Aug-23 20:33N 40°46' W 074°00'0 0.0
2015-Aug-23 19:33N 40°46' W 074°00'3 2.8
2015-Aug-23 18:34N 40°48' W 073°59'2 2.0
2015-Aug-23 17:21N 40°48' W 073°56'810.1
2015-Aug-23 16:33N 40°41' W 074°02'5 4.8
2015-Aug-23 15:33N 40°46' W 074°00'5 5.1
2015-Aug-23 14:33N 40°41' W 074°03'5 5.1
2015-Aug-23 13:33N 40°46' W 074°00'0 0.0
2015-Aug-23 00:33N 40°46' W 074°00'3 3.0
2015-Aug-22 23:33N 40°43' W 073°58'3 3.0
2015-Aug-22 22:33N 40°46' W 074°00'0 0.0
2015-Aug-22 21:33N 40°46' W 074°00'3 3.4
2015-Aug-22 20:33N 40°43' W 073°58'3 3.4
2015-Aug-22 19:33N 40°46' W 074°00'2 2.5
2015-Aug-22 18:33N 40°43' W 074°01'2 1.9
2015-Aug-22 17:33N 40°42' W 074°02'4 4.4
2015-Aug-22 16:33N 40°46' W 074°00'0 0.0
2015-Aug-22 15:33N 40°46' W 074°00'0 0.0
2015-Aug-22 14:33N 40°46' W 074°00'0 0.0
2015-Aug-22 13:33N 40°46' W 074°00'0 0.0
2015-Aug-22 12:33N 40°46' W 074°00'3 0.1
2015-Aug-21 00:33N 40°43' W 074°01'2 2.1
2015-Aug-20 23:33N 40°41' W 074°02'5 4.6
2015-Aug-20 22:33N 40°46' W 074°00'0 0.0
2015-Aug-20 21:33N 40°46' W 074°00'0 0.0
2015-Aug-20 20:33N 40°46' W 074°00'0 0.0
2015-Aug-20 19:33N 40°46' W 074°00'0 0.0
2015-Aug-20 18:33N 40°46' W 074°00'3 2.6
2015-Aug-20 17:33N 40°48' W 073°59'3 1.9
2015-Aug-20 16:07N 40°46' W 073°57'610.6
2015-Aug-20 15:33N 40°41' W 074°02'5 4.6
2015-Aug-20 14:33N 40°46' W 074°00'0 0.0
2015-Aug-20 01:34N 40°46' W 074°00'3 2.8
2015-Aug-20 00:34N 40°43' W 074°01'2 2.0
2015-Aug-19 23:34N 40°41' W 074°02'5 4.7
2015-Aug-19 22:34N 40°46' W 074°00'  

Dump ship's entire track history